createdAt,value
2019-02-09T00:00:09.685Z,2.50
2019-02-09T00:02:36.723Z,2.50
2019-02-09T00:05:03.989Z,2.47
2019-02-09T00:07:30.981Z,2.63
2019-02-09T00:09:58.050Z,2.50
2019-02-09T00:12:25.056Z,2.53
2019-02-09T00:14:52.083Z,2.63
2019-02-09T00:17:19.137Z,2.30
2019-02-09T00:19:46.130Z,2.23
2019-02-09T00:22:13.101Z,2.10
2019-02-09T00:24:40.514Z,2.50
2019-02-09T00:27:07.622Z,2.53
2019-02-09T00:29:34.624Z,2.23
2019-02-09T00:32:01.643Z,2.43
2019-02-09T00:34:28.654Z,1.90
2019-02-09T00:36:55.663Z,2.00
2019-02-09T00:39:22.673Z,1.80
2019-02-09T00:41:49.731Z,1.90
2019-02-09T00:44:16.745Z,2.03
2019-02-09T00:46:43.810Z,1.90
2019-02-09T00:49:10.890Z,2.10
2019-02-09T00:51:37.897Z,2.07
2019-02-09T00:54:04.939Z,2.10
2019-02-09T00:56:31.973Z,1.97
2019-02-09T00:58:58.976Z,2.10
2019-02-09T01:01:25.974Z,1.77
2019-02-09T01:03:52.982Z,1.87
2019-02-09T01:06:19.975Z,1.93
2019-02-09T01:08:46.998Z,1.60
2019-02-09T01:11:13.997Z,1.97
2019-02-09T01:13:41.008Z,2.20
2019-02-09T01:16:08.034Z,1.80
2019-02-09T01:18:35.069Z,2.27
2019-02-09T01:21:02.057Z,1.90
2019-02-09T01:23:29.073Z,2.07
2019-02-09T01:25:57.585Z,1.83
2019-02-09T01:28:24.594Z,1.60
2019-02-09T01:30:51.616Z,1.60
2019-02-09T01:33:18.609Z,1.80
2019-02-09T01:35:45.603Z,1.77
2019-02-09T01:38:12.609Z,1.70
2019-02-09T01:40:39.590Z,1.70
2019-02-09T01:43:06.611Z,1.53
2019-02-09T01:45:33.603Z,1.60
2019-02-09T01:48:00.571Z,1.90
2019-02-09T01:50:28.985Z,1.60
2019-02-09T01:52:56.011Z,1.90
2019-02-09T01:55:23.006Z,1.67
2019-02-09T01:57:49.997Z,1.90
2019-02-09T02:00:19.221Z,1.80
2019-02-09T02:02:46.214Z,1.50
2019-02-09T02:05:13.337Z,1.60
2019-02-09T02:07:40.338Z,1.43
2019-02-09T02:10:10.881Z,1.33
2019-02-09T02:12:37.865Z,1.57
2019-02-09T02:15:08.208Z,1.70
2019-02-09T02:17:35.196Z,1.60
2019-02-09T02:20:02.253Z,1.57
2019-02-09T02:22:29.315Z,1.60
2019-02-09T02:24:56.333Z,1.60
2019-02-09T02:27:23.605Z,1.60
2019-02-09T02:29:50.615Z,1.53
2019-02-09T02:32:17.612Z,1.73
2019-02-09T02:34:44.601Z,1.50
2019-02-09T02:37:11.628Z,1.60
2019-02-09T02:39:38.611Z,1.50
2019-02-09T02:42:05.593Z,1.43
2019-02-09T02:44:32.622Z,1.37
2019-02-09T02:46:59.610Z,1.37
2019-02-09T02:49:26.629Z,1.60
2019-02-09T02:51:53.653Z,1.57
2019-02-09T02:54:20.648Z,1.33
2019-02-09T02:56:47.691Z,1.47
2019-02-09T02:59:14.770Z,1.80
2019-02-09T03:01:41.751Z,1.63
2019-02-09T03:04:08.735Z,1.67
2019-02-09T03:06:35.788Z,1.60
2019-02-09T03:09:05.438Z,1.63
2019-02-09T03:11:32.440Z,1.13
2019-02-09T03:13:59.442Z,1.40
2019-02-09T03:16:26.425Z,1.20
2019-02-09T03:18:53.417Z,1.53
2019-02-09T03:21:20.431Z,1.70
2019-02-09T03:23:47.422Z,1.30
2019-02-09T03:26:14.421Z,1.40
2019-02-09T03:28:42.458Z,1.70
2019-02-09T03:31:09.438Z,1.70
2019-02-09T03:33:36.447Z,1.30
2019-02-09T03:36:03.478Z,1.30
2019-02-09T03:38:30.508Z,1.63
2019-02-09T03:40:57.509Z,1.47
2019-02-09T03:43:24.518Z,1.67
2019-02-09T03:45:51.497Z,1.83
2019-02-09T03:48:18.468Z,1.80
2019-02-09T03:50:45.503Z,1.60
2019-02-09T03:53:13.020Z,1.40
2019-02-09T03:55:40.025Z,1.57
2019-02-09T03:58:07.028Z,1.60
2019-02-09T04:00:34.009Z,1.70
2019-02-09T04:03:01.026Z,1.70
2019-02-09T04:05:28.029Z,1.50
2019-02-09T04:07:55.004Z,1.43
2019-02-09T04:10:22.985Z,1.30
2019-02-09T04:12:49.975Z,1.20
2019-02-09T04:15:18.314Z,1.50
2019-02-09T04:17:45.354Z,1.30
2019-02-09T04:20:13.611Z,1.40
2019-02-09T04:22:40.596Z,1.50
2019-02-09T04:25:08.771Z,1.70
2019-02-09T04:27:35.802Z,0.90
2019-02-09T04:30:06.575Z,1.00
2019-02-09T04:32:33.573Z,0.80
2019-02-09T04:35:00.598Z,1.43
2019-02-09T04:37:27.564Z,1.20
2019-02-09T04:39:54.581Z,1.00
2019-02-09T04:42:21.607Z,1.00
2019-02-09T04:44:48.590Z,1.03
2019-02-09T04:47:15.614Z,0.97
2019-02-09T04:49:42.679Z,1.07
2019-02-09T04:52:09.662Z,0.97
2019-02-09T04:54:36.689Z,1.03
2019-02-09T04:57:03.714Z,1.07
2019-02-09T04:59:30.988Z,1.07
2019-02-09T05:01:58.050Z,1.00
2019-02-09T05:04:25.207Z,1.20
2019-02-09T05:06:52.183Z,1.20
2019-02-09T05:09:19.161Z,1.17
2019-02-09T05:11:46.164Z,1.10
2019-02-09T05:14:13.140Z,0.90
2019-02-09T05:16:40.128Z,0.97
2019-02-09T05:19:07.212Z,0.87
2019-02-09T05:21:34.237Z,1.00
2019-02-09T05:24:01.264Z,1.10
2019-02-09T05:26:28.279Z,0.80
2019-02-09T05:28:55.268Z,1.00
2019-02-09T05:31:23.658Z,1.00
2019-02-09T05:33:49.660Z,0.90
2019-02-09T05:36:16.636Z,1.10
2019-02-09T05:38:43.616Z,1.10
2019-02-09T05:41:10.648Z,1.20
2019-02-09T05:43:37.628Z,1.20
2019-02-09T05:46:04.611Z,1.10
2019-02-09T05:48:31.654Z,1.10
2019-02-09T05:50:58.730Z,1.10
2019-02-09T05:53:25.704Z,1.00
2019-02-09T05:55:52.701Z,1.20
2019-02-09T05:58:19.689Z,1.10
2019-02-09T06:00:46.730Z,1.07
2019-02-09T06:03:13.731Z,1.10
2019-02-09T06:05:40.716Z,1.10
2019-02-09T06:08:07.695Z,1.00
2019-02-09T06:10:34.710Z,1.23
2019-02-09T06:13:01.679Z,1.00
2019-02-09T06:15:28.667Z,1.17
2019-02-09T06:17:55.666Z,1.10
2019-02-09T06:20:23.717Z,1.40
2019-02-09T06:22:50.700Z,1.63
2019-02-09T06:25:17.710Z,1.20
2019-02-09T06:27:44.693Z,1.50
2019-02-09T06:30:15.061Z,1.20
2019-02-09T06:32:43.473Z,0.97
2019-02-09T06:35:10.486Z,0.97
2019-02-09T06:37:38.976Z,1.30
2019-02-09T06:40:05.210Z,1.50
2019-02-09T06:42:32.193Z,1.20
2019-02-09T06:44:59.176Z,1.20
2019-02-09T06:47:26.178Z,1.10
2019-02-09T06:49:53.264Z,1.23
2019-02-09T06:52:20.245Z,1.30
2019-02-09T06:54:47.325Z,1.30
2019-02-09T06:57:14.288Z,1.33
2019-02-09T06:59:41.277Z,1.20
2019-02-09T07:02:08.319Z,1.30
2019-02-09T07:04:35.344Z,2.60
2019-02-09T07:07:02.324Z,1.40
2019-02-09T07:09:29.316Z,1.30
2019-02-09T07:11:56.332Z,1.47
2019-02-09T07:14:23.325Z,1.10
2019-02-09T07:16:50.308Z,1.33
2019-02-09T07:19:17.285Z,1.30
2019-02-09T07:21:44.289Z,1.37
2019-02-09T07:24:11.282Z,1.27
2019-02-09T07:26:38.313Z,1.37
2019-02-09T07:29:05.348Z,1.10
2019-02-09T07:31:32.481Z,1.20
2019-02-09T07:33:59.829Z,1.33
2019-02-09T07:36:26.817Z,1.80
2019-02-09T07:38:53.820Z,1.60
2019-02-09T07:41:20.820Z,1.43
2019-02-09T07:43:47.933Z,1.17
2019-02-09T07:46:15.441Z,1.20
2019-02-09T07:48:42.423Z,1.10
2019-02-09T07:51:09.411Z,1.23
2019-02-09T07:53:36.443Z,1.40
2019-02-09T07:56:03.485Z,1.10
2019-02-09T07:58:30.520Z,1.00
2019-02-09T08:00:57.574Z,1.00
2019-02-09T08:03:24.518Z,1.00
2019-02-09T08:05:51.506Z,0.97
2019-02-09T08:08:18.545Z,1.20
2019-02-09T08:10:45.527Z,1.00
2019-02-09T08:13:12.490Z,1.00
2019-02-09T08:15:39.500Z,0.97
2019-02-09T08:18:06.507Z,1.20
2019-02-09T08:20:33.517Z,1.13
2019-02-09T08:23:01.184Z,0.90
2019-02-09T08:25:30.118Z,0.80
2019-02-09T08:27:57.203Z,1.00
2019-02-09T08:30:26.989Z,1.00
2019-02-09T08:32:54.018Z,1.10
2019-02-09T08:35:21.432Z,1.13
2019-02-09T08:37:48.467Z,1.37
2019-02-09T08:40:15.501Z,1.07
2019-02-09T08:42:42.489Z,0.77
2019-02-09T08:45:12.768Z,0.70
2019-02-09T08:47:39.764Z,1.00
2019-02-09T08:50:10.736Z,0.77
2019-02-09T08:52:37.736Z,1.13
2019-02-09T08:55:04.781Z,1.03
2019-02-09T08:57:31.791Z,1.30
2019-02-09T08:59:58.851Z,0.97
2019-02-09T09:02:25.829Z,1.07
2019-02-09T09:04:52.828Z,0.93
2019-02-09T09:07:19.790Z,1.00
2019-02-09T09:09:46.849Z,1.10
2019-02-09T09:12:13.890Z,1.00
2019-02-09T09:14:40.926Z,1.03
2019-02-09T09:17:07.949Z,1.03
2019-02-09T09:19:34.961Z,1.17
2019-02-09T09:22:01.966Z,1.03
2019-02-09T09:24:29.001Z,1.10
2019-02-09T09:26:55.984Z,1.20
2019-02-09T09:29:22.981Z,1.17
2019-02-09T09:31:49.992Z,1.30
2019-02-09T09:34:16.960Z,2.13
2019-02-09T09:36:44.125Z,1.37
2019-02-09T09:39:11.106Z,1.17
2019-02-09T09:41:38.081Z,1.33
2019-02-09T09:44:05.069Z,1.30
2019-02-09T09:46:32.048Z,1.40
2019-02-09T09:48:59.033Z,0.90
2019-02-09T09:51:26.025Z,1.40
2019-02-09T09:53:53.053Z,1.20
2019-02-09T09:56:20.049Z,0.93
2019-02-09T09:58:47.081Z,0.90
2019-02-09T10:01:14.028Z,1.23
2019-02-09T10:03:40.979Z,1.37
2019-02-09T10:06:07.934Z,1.27
2019-02-09T10:08:34.865Z,1.00
2019-02-09T10:11:01.808Z,1.13
2019-02-09T10:13:28.750Z,1.13
2019-02-09T10:15:55.708Z,1.07
2019-02-09T10:18:22.648Z,0.90
2019-02-09T10:20:49.619Z,1.00
2019-02-09T10:23:16.578Z,0.80
2019-02-09T10:25:43.525Z,0.70
2019-02-09T10:28:10.503Z,1.07
2019-02-09T10:30:37.484Z,1.07
2019-02-09T10:33:04.457Z,1.10
2019-02-09T10:35:31.399Z,1.13
2019-02-09T10:37:58.699Z,1.60
2019-02-09T10:40:27.548Z,1.57
2019-02-09T10:42:54.500Z,1.47
2019-02-09T10:45:23.288Z,1.10
2019-02-09T10:47:50.245Z,1.40
2019-02-09T10:50:22.729Z,1.27
2019-02-09T10:52:49.689Z,1.33
2019-02-09T10:55:16.662Z,1.47
2019-02-09T10:57:44.040Z,1.40
2019-02-09T11:00:14.999Z,1.53
2019-02-09T11:02:41.932Z,1.13
2019-02-09T11:05:10.052Z,1.37
2019-02-09T11:07:36.972Z,3.10
2019-02-09T11:10:04.946Z,1.93
2019-02-09T11:12:31.944Z,1.33
2019-02-09T11:14:58.900Z,1.30
2019-02-09T11:17:25.859Z,1.50
2019-02-09T11:19:52.816Z,1.20
2019-02-09T11:22:19.749Z,1.50
2019-02-09T11:24:46.679Z,1.20
2019-02-09T11:27:13.640Z,1.60
2019-02-09T11:29:40.615Z,1.57
2019-02-09T11:32:07.560Z,1.40
2019-02-09T11:34:34.508Z,1.17
2019-02-09T11:37:01.456Z,1.63
2019-02-09T11:39:28.725Z,2.63
2019-02-09T11:41:55.676Z,1.63
2019-02-09T11:44:22.656Z,1.87
2019-02-09T11:46:49.606Z,1.30
2019-02-09T11:49:16.901Z,1.60
2019-02-09T11:51:43.564Z,1.70
2019-02-09T11:54:10.550Z,1.73
2019-02-09T11:56:37.549Z,1.77
2019-02-09T11:59:04.516Z,1.50
2019-02-09T12:01:31.481Z,1.60
2019-02-09T12:03:58.501Z,1.67
2019-02-09T12:06:25.444Z,1.67
2019-02-09T12:08:52.396Z,1.43
2019-02-09T12:11:19.369Z,1.30
2019-02-09T12:13:46.336Z,2.80
2019-02-09T12:16:13.293Z,2.03
2019-02-09T12:18:40.256Z,1.60
2019-02-09T12:21:07.199Z,1.90
2019-02-09T12:23:34.144Z,1.70
2019-02-09T12:26:01.120Z,1.40
2019-02-09T12:28:28.060Z,1.20
2019-02-09T12:30:55.024Z,1.60
2019-02-09T12:33:23.417Z,1.20
2019-02-09T12:35:48.946Z,1.30
2019-02-09T12:38:15.904Z,1.33
2019-02-09T12:40:43.425Z,1.60
2019-02-09T12:43:10.386Z,1.50
2019-02-09T12:45:37.442Z,1.30
2019-02-09T12:48:04.874Z,1.40
2019-02-09T12:50:31.827Z,1.10
2019-02-09T12:52:58.756Z,1.40
2019-02-09T12:55:25.714Z,1.23
2019-02-09T12:57:52.657Z,1.40
2019-02-09T13:00:22.701Z,1.50
2019-02-09T13:02:49.653Z,1.40
2019-02-09T13:05:16.596Z,1.50
2019-02-09T13:07:43.697Z,1.20
2019-02-09T13:10:10.545Z,1.37
2019-02-09T13:12:37.484Z,1.50
2019-02-09T13:15:05.712Z,1.03
2019-02-09T13:17:32.735Z,1.50
2019-02-09T13:19:59.691Z,1.33
2019-02-09T13:22:26.652Z,1.20
2019-02-09T13:24:53.618Z,1.37
2019-02-09T13:27:20.565Z,1.40
2019-02-09T13:29:47.513Z,1.80
2019-02-09T13:32:14.483Z,1.60
2019-02-09T13:34:41.417Z,1.40
2019-02-09T13:37:08.358Z,1.47
2019-02-09T13:39:35.336Z,1.30
2019-02-09T13:42:02.752Z,1.20
2019-02-09T13:44:29.730Z,1.40
2019-02-09T13:46:56.693Z,1.63
2019-02-09T13:49:23.640Z,1.37
2019-02-09T13:51:50.583Z,1.73
2019-02-09T13:54:17.519Z,2.17
2019-02-09T13:56:44.463Z,1.50
2019-02-09T13:59:11.431Z,1.50
2019-02-09T14:01:38.382Z,1.33
2019-02-09T14:04:05.321Z,1.60
2019-02-09T14:06:32.276Z,1.73
2019-02-09T14:08:59.259Z,1.60
2019-02-09T14:11:26.192Z,1.77
2019-02-09T14:13:53.140Z,1.50
2019-02-09T14:16:20.103Z,1.80
2019-02-09T14:18:48.225Z,1.70
2019-02-09T14:21:13.996Z,2.50
2019-02-09T14:23:40.968Z,2.53
2019-02-09T14:26:07.891Z,1.83
2019-02-09T14:28:34.842Z,2.53
2019-02-09T14:31:01.788Z,2.70
2019-02-09T14:33:28.940Z,1.70
2019-02-09T14:35:55.884Z,1.60
2019-02-09T14:38:22.841Z,2.27
2019-02-09T14:40:49.777Z,1.70
2019-02-09T14:43:17.332Z,1.50
2019-02-09T14:45:44.308Z,2.07
2019-02-09T14:48:11.234Z,1.83
2019-02-09T14:50:38.167Z,4.00
2019-02-09T14:53:05.587Z,3.33
2019-02-09T14:55:33.641Z,3.27
2019-02-09T14:58:00.786Z,2.70
2019-02-09T15:00:31.237Z,2.33
2019-02-09T15:02:58.179Z,1.70
2019-02-09T15:05:25.108Z,1.90
2019-02-09T15:07:52.065Z,1.63
2019-02-09T15:10:19.047Z,1.13
2019-02-09T15:12:45.995Z,1.43
2019-02-09T15:15:19.281Z,1.40
2019-02-09T15:17:46.309Z,1.37
2019-02-09T15:20:15.904Z,1.50
2019-02-09T15:22:42.859Z,1.60
2019-02-09T15:25:09.804Z,1.93
2019-02-09T15:27:36.753Z,1.70
2019-02-09T15:30:05.553Z,1.80
2019-02-09T15:32:32.502Z,2.17
2019-02-09T15:34:59.425Z,1.53
2019-02-09T15:37:26.392Z,2.00
2019-02-09T15:39:53.332Z,2.03
2019-02-09T15:42:20.296Z,1.50
2019-02-09T15:44:49.162Z,1.87
2019-02-09T15:47:16.101Z,1.20
2019-02-09T15:49:43.040Z,1.67
2019-02-09T15:52:10.009Z,1.30
2019-02-09T15:54:37.120Z,1.97
2019-02-09T15:57:04.544Z,1.37
2019-02-09T15:59:31.497Z,2.03
2019-02-09T16:01:58.469Z,1.67
2019-02-09T16:04:25.452Z,1.90
2019-02-09T16:06:52.386Z,1.63
2019-02-09T16:09:19.331Z,2.13
2019-02-09T16:11:46.305Z,1.47
2019-02-09T16:14:13.261Z,1.90
2019-02-09T16:16:40.231Z,1.60
2019-02-09T16:19:07.200Z,1.87
2019-02-09T16:21:34.201Z,1.63
2019-02-09T16:24:01.131Z,1.70
2019-02-09T16:26:28.072Z,2.00
2019-02-09T16:28:55.069Z,1.90
2019-02-09T16:31:21.995Z,2.07
2019-02-09T16:33:48.949Z,1.90
2019-02-09T16:36:15.914Z,1.87
2019-02-09T16:38:42.848Z,1.50
2019-02-09T16:41:09.786Z,1.90
2019-02-09T16:43:36.725Z,2.07
2019-02-09T16:46:04.193Z,2.13
2019-02-09T16:48:31.141Z,3.50
2019-02-09T16:50:58.295Z,2.90
2019-02-09T16:53:25.288Z,2.33
2019-02-09T16:55:52.291Z,2.30
2019-02-09T16:58:19.363Z,2.60
2019-02-09T17:00:46.366Z,2.53
2019-02-09T17:03:13.307Z,2.80
2019-02-09T17:05:40.272Z,2.00
2019-02-09T17:08:07.214Z,2.97
2019-02-09T17:10:34.346Z,2.40
2019-02-09T17:13:01.324Z,2.80
2019-02-09T17:15:28.291Z,1.87
2019-02-09T17:17:55.418Z,3.20
2019-02-09T17:20:22.376Z,2.97
2019-02-09T17:22:49.306Z,2.20
2019-02-09T17:25:16.383Z,2.63
2019-02-09T17:27:43.329Z,2.63
2019-02-09T17:30:14.878Z,2.60
2019-02-09T17:32:41.819Z,2.70
2019-02-09T17:35:08.862Z,2.50
2019-02-09T17:37:35.804Z,2.70
2019-02-09T17:40:03.539Z,2.30
2019-02-09T17:42:30.506Z,2.00
2019-02-09T17:44:57.446Z,2.30
2019-02-09T17:47:25.592Z,2.27
2019-02-09T17:49:52.554Z,2.00
2019-02-09T17:52:19.489Z,2.33
2019-02-09T17:54:46.423Z,1.70
2019-02-09T17:57:13.373Z,2.43
2019-02-09T17:59:40.352Z,2.20
2019-02-09T18:02:07.287Z,1.93
2019-02-09T18:04:34.239Z,2.80
2019-02-09T18:07:01.181Z,4.37
2019-02-09T18:09:28.112Z,3.20
2019-02-09T18:11:55.078Z,2.17
2019-02-09T18:14:35.574Z,2.67
2019-02-09T18:17:02.543Z,1.97
2019-02-09T18:19:29.494Z,1.90
2019-02-09T18:21:56.448Z,2.10
2019-02-09T18:24:23.391Z,1.87
2019-02-09T18:26:50.374Z,2.13
2019-02-09T18:29:17.328Z,2.10
2019-02-09T18:31:44.288Z,2.10
2019-02-09T18:34:11.239Z,2.00
2019-02-09T18:36:38.205Z,2.13
2019-02-09T18:39:09.378Z,2.63
2019-02-09T18:41:36.360Z,2.27
2019-02-09T18:44:03.344Z,2.27
2019-02-09T18:46:30.329Z,1.90
2019-02-09T18:48:57.273Z,2.17
2019-02-09T18:51:24.234Z,1.97
2019-02-09T18:53:51.177Z,1.80
2019-02-09T18:56:18.139Z,1.90
2019-02-09T18:58:45.124Z,2.43
2019-02-09T19:01:12.083Z,2.30
2019-02-09T19:03:39.032Z,2.40
2019-02-09T19:06:06.010Z,2.60
2019-02-09T19:08:33.076Z,2.40
2019-02-09T19:11:00.047Z,2.60
2019-02-09T19:13:27.026Z,2.00
2019-02-09T19:15:55.421Z,2.20
2019-02-09T19:18:22.389Z,2.57
2019-02-09T19:20:52.426Z,2.80
2019-02-09T19:23:19.393Z,2.73
2019-02-09T19:25:46.345Z,2.43
2019-02-09T19:28:13.470Z,2.40
2019-02-09T19:30:41.277Z,2.40
2019-02-09T19:33:08.254Z,1.90
2019-02-09T19:35:38.872Z,2.43
2019-02-09T19:38:05.843Z,2.00
2019-02-09T19:40:32.864Z,2.17
2019-02-09T19:43:00.004Z,2.50
2019-02-09T19:45:28.968Z,1.97
2019-02-09T19:47:55.928Z,2.40
2019-02-09T19:50:22.916Z,2.10
2019-02-09T19:52:49.847Z,2.53
2019-02-09T19:55:18.896Z,2.60
2019-02-09T19:57:45.872Z,2.00
2019-02-09T20:00:20.266Z,2.30
2019-02-09T20:02:47.244Z,3.07
2019-02-09T20:05:19.716Z,2.10
2019-02-09T20:07:41.112Z,2.30
2019-02-09T20:10:10.003Z,2.50
2019-02-09T20:12:36.937Z,2.67
2019-02-09T20:15:04.784Z,2.00
2019-02-09T20:17:31.727Z,2.30
2019-02-09T20:19:58.693Z,2.40
2019-02-09T20:22:25.656Z,2.33
2019-02-09T20:24:52.681Z,2.17
2019-02-09T20:27:19.671Z,2.50
2019-02-09T20:29:46.645Z,2.30
2019-02-09T20:32:13.680Z,2.87
2019-02-09T20:34:40.645Z,2.40
2019-02-09T20:37:08.225Z,2.67
2019-02-09T20:39:35.189Z,2.67
2019-02-09T20:42:02.221Z,2.27
2019-02-09T20:44:29.210Z,2.90
2019-02-09T20:46:56.168Z,2.87
2019-02-09T20:49:23.080Z,2.23
2019-02-09T20:51:50.033Z,2.27
2019-02-09T20:54:17.010Z,2.73
2019-02-09T20:56:43.942Z,2.80
2019-02-09T20:59:10.864Z,2.40
2019-02-09T21:01:37.816Z,2.77
2019-02-09T21:04:04.760Z,2.37
2019-02-09T21:06:31.722Z,2.60
2019-02-09T21:08:58.656Z,2.30
2019-02-09T21:11:25.589Z,2.23
2019-02-09T21:13:52.519Z,2.27
2019-02-09T21:16:19.486Z,2.10
2019-02-09T21:18:46.429Z,2.37
2019-02-09T21:21:13.360Z,2.47
2019-02-09T21:23:40.307Z,2.40
2019-02-09T21:26:07.246Z,2.27
2019-02-09T21:28:34.189Z,2.23
2019-02-09T21:31:01.140Z,2.47
2019-02-09T21:33:28.097Z,2.57
2019-02-09T21:35:55.036Z,2.27
2019-02-09T21:38:22.448Z,2.67
2019-02-09T21:40:49.396Z,2.90
2019-02-09T21:43:16.328Z,2.30
2019-02-09T21:45:45.293Z,2.00
2019-02-09T21:48:10.197Z,2.80
2019-02-09T21:50:52.743Z,2.80
2019-02-09T21:53:20.178Z,2.10
2019-02-09T21:55:47.091Z,2.40
2019-02-09T21:58:14.042Z,2.70
2019-02-09T22:00:42.066Z,2.63
2019-02-09T22:03:10.453Z,2.80
2019-02-09T22:05:37.390Z,2.40
2019-02-09T22:08:05.175Z,3.00
2019-02-09T22:10:34.094Z,2.90
2019-02-09T22:12:59.065Z,2.67
2019-02-09T22:15:26.423Z,2.87
2019-02-09T22:17:53.334Z,3.10
2019-02-09T22:20:20.288Z,2.63
2019-02-09T22:22:47.259Z,2.67
2019-02-09T22:25:15.947Z,3.17
2019-02-09T22:27:43.431Z,2.90
2019-02-09T22:30:12.224Z,2.70
2019-02-09T22:32:39.156Z,2.63
2019-02-09T22:35:06.147Z,2.80
2019-02-09T22:37:33.168Z,2.47
2019-02-09T22:40:00.032Z,2.70
2019-02-09T22:42:26.952Z,2.47
2019-02-09T22:44:53.865Z,2.50
2019-02-09T22:47:20.928Z,2.70
2019-02-09T22:49:47.721Z,2.53
2019-02-09T22:52:14.637Z,2.47
2019-02-09T22:54:42.811Z,2.30
2019-02-09T22:57:09.751Z,2.50
2019-02-09T22:59:36.667Z,2.80
2019-02-09T23:02:03.619Z,2.20
2019-02-09T23:04:56.411Z,2.87
2019-02-09T23:07:26.414Z,3.00
2019-02-09T23:09:58.795Z,2.27
2019-02-09T23:12:25.718Z,2.63
2019-02-09T23:14:52.663Z,2.30
2019-02-09T23:17:19.667Z,2.40
2019-02-09T23:19:46.556Z,2.53
2019-02-09T23:22:13.494Z,2.23
2019-02-09T23:24:40.448Z,2.53
2019-02-09T23:27:07.395Z,2.30
2019-02-09T23:29:34.334Z,2.73
2019-02-09T23:32:01.288Z,2.90
2019-02-09T23:34:28.227Z,2.70
2019-02-09T23:36:55.171Z,2.53
2019-02-09T23:39:22.163Z,3.30
2019-02-09T23:41:49.095Z,3.07
2019-02-09T23:44:16.028Z,3.37
2019-02-09T23:46:42.983Z,3.10
2019-02-09T23:49:09.987Z,3.00
2019-02-09T23:51:36.932Z,2.57
2019-02-09T23:54:03.878Z,2.17
2019-02-09T23:56:30.808Z,2.63
2019-02-09T23:58:57.739Z,2.70
